Latest Weather Observations for Leonora Airport

IDW60801

Issued at 7:13 am WST Wednesday 24 October 2018 (issued every 10 minutes, with the page automatically refreshed every 10 minutes)

About weather observations | Map of weather stations | Latest weather observations for WA | Other Formats
Station Details ID: 012241 Name: LEONORA AERO Lat: -28.88 Lon: 121.32 Height: 370.0 m
Data from the previous 72 hours. | See also: Recent months at Leonora Airport
Date/Time
WST
Temp
°C
App
Temp
°C
Dew
Point
°C
Rel
Hum
%
Delta-T
°C
Wind Press
QNH
hPa
Press
MSL
hPa
Rain since
9am
mm
Dir  Spd
km/h
Gust
km/h
Spd
kts
Gust
kts
24/07:00am 22.1 18.9 5.1 33 8.6 E 11 15 6 8 1010.8 1009.3 0.0
24/06:30am 20.5 17.6 4.9 36 7.8 SE 9 13 5 7 1010.9 1009.4 0.0
24/06:00am 19.1 16.9 5.2 40 6.9 SE 6 11 3 6 1010.7 1009.2 0.0
24/05:30am 17.4 14.6 5.0 44 6.1 SSE 9 11 5 6 1010.6 1009.1 0.0
24/05:00am 17.2 14.7 4.9 44 6.0 SE 7 9 4 5 1010.5 1009.0 0.0
24/04:30am 17.5 14.2 4.8 43 6.2 SE 11 13 6 7 1010.5 1009.0 0.0
24/04:00am 17.0 14.0 4.0 42 6.2 SE 9 11 5 6 1010.5 1009.0 0.0
24/03:30am 16.9 14.0 2.5 38 6.7 SE 7 9 4 5 1010.6 1009.1 0.0
24/03:00am 18.0 14.8 3.1 37 7.0 SE 9 11 5 6 1010.5 1009.0 0.0
24/02:30am 18.9 15.7 3.1 35 7.5 ESE 9 13 5 7 1010.6 1009.1 0.0
24/02:00am 18.2 15.0 2.9 36 7.2 ESE 9 11 5 6 1010.8 1009.3 0.0
24/01:30am 18.9 16.0 2.7 34 7.6 E 7 9 4 5 1010.8 1009.3 0.0
24/01:00am 19.2 16.2 2.1 32 8.0 ESE 7 9 4 5 1011.0 1009.5 0.0
24/12:30am 19.9 16.5 1.8 30 8.4 ESE 9 13 5 7 1011.2 1009.7 0.0
24/12:00am 20.6 16.8 2.0 29 8.8 ESE 11 13 6 7 1011.6 1010.1 0.0
 
Date/Time
WST
Temp
°C
App
Temp
°C
Dew
Point
°C
Rel
Hum
%
Delta-T
°C
Wind Press
QNH
hPa
Press
MSL
hPa
Rain since
9am
mm
Dir  Spd
km/h
Gust
km/h
Spd
kts
Gust
kts
23/11:30pm 21.3 17.6 2.1 28 9.1 ESE 11 13 6 7 1011.9 1010.4 0.0
23/11:00pm 22.0 17.8 1.6 26 9.6 ESE 13 17 7 9 1012.1 1010.6 0.0
23/10:30pm 22.5 17.9 1.5 25 9.9 ESE 15 20 8 11 1012.3 1010.8 0.0
23/10:00pm 22.9 18.6 1.3 24 10.2 ESE 13 19 7 10 1012.6 1011.1 0.0
23/09:30pm 23.8 18.8 1.4 23 10.7 ESE 17 20 9 11 1013.0 1011.5 0.0
23/09:00pm 24.3 19.6 1.2 22 11.0 SE 15 20 8 11 1013.1 1011.6 0.0
23/08:30pm 24.3 19.6 0.6 21 11.2 ESE 15 20 8 11 1013.3 1011.8 0.0
23/08:00pm 25.0 20.2 0.5 20 11.6 SE 15 19 8 10 1013.3 1011.8 0.0
23/07:30pm 25.8 21.4 0.5 19 12.0 SE 13 17 7 9 1013.2 1011.7 0.0
23/07:00pm 26.2 22.1 0.0 18 12.4 SSE 11 13 6 7 1013.1 1011.6 0.0
23/06:30pm 27.2 23.9 0.1 17 12.9 SE 7 15 4 8 1013.1 1011.6 0.0
23/06:00pm 28.2 25.7 -0.9 15 13.7 SE 2 9 1 5 1012.9 1011.4 0.0
23/05:30pm 28.9 24.0 -0.3 15 14.0 SSE 15 30 8 16 1012.9 1011.4 0.0
23/05:00pm 29.0 25.3 -0.2 15 14.0 SSE 9 13 5 7 1012.9 1011.4 0.0
23/04:30pm 29.4 26.0 -0.9 14 14.4 SE 7 13 4 7 1012.9 1011.4 0.0
23/04:00pm 29.1 25.8 -0.1 15 14.1 SSE 7 19 4 10 1013.0 1011.5 0.0
23/03:30pm 28.2 24.8 -0.9 15 13.7 NE 7 15 4 8 1013.1 1011.6 0.0
23/03:00pm 29.0 25.3 -0.2 15 14.0 SE 9 17 5 9 1013.2 1011.7 0.0
23/02:30pm 28.2 24.9 0.0 16 13.5 NNW 7 22 4 12 1013.7 1012.2 0.0
23/02:00pm 28.0 23.9 -0.1 16 13.4 SSE 11 15 6 8 1014.1 1012.6 0.0
23/01:30pm 27.1 23.4 0.0 17 12.9 NNW 9 15 5 8 1014.5 1013.0 0.0
23/01:00pm 27.2 23.1 2.3 20 12.4 E 13 24 7 13 1014.9 1013.5 0.0
23/12:30pm 26.2 22.2 2.8 22 11.6 ENE 13 20 7 11 1015.5 1014.0 0.0
23/12:00pm 25.4 20.7 3.4 24 11.0 E 17 26 9 14 1016.1 1014.6 0.0
23/11:30am 25.1 21.5 4.8 27 10.4 E 13 26 7 14 1016.5 1015.0 0.0
23/11:00am 23.6 19.2 5.0 30 9.5 E 17 30 9 16 1017.1 1015.6 0.0
23/10:30am 22.3 17.4 5.3 33 8.6 E 20 30 11 16 1017.7 1016.3 0.0
23/10:00am 21.1 16.4 5.1 35 8.0 E 19 32 10 17 1018.1 1016.7 0.0
23/09:30am 20.5 16.0 6.1 39 7.3 E 19 26 10 14 1018.5 1017.0 0.0
23/09:00am 19.2 14.5 6.0 42 6.6 E 20 39 11 21 1018.8 1017.3 0.0
23/08:30am 18.6 13.5 6.1 44 6.3 ESE 22 35 12 19 1018.7 1017.2 0.0
23/08:00am 17.3 11.9 6.2 48 5.5 ESE 24 35 13 19 1018.6 1017.1 0.0
23/07:30am 16.8 11.7 6.0 49 5.4 E 22 33 12 18 1018.5 1017.0 0.0
23/07:00am 16.1 10.2 6.0 51 5.0 E 26 35 14 19 1018.4 1016.9 0.0
23/06:30am 15.0 9.4 5.5 53 4.6 ESE 24 33 13 18 1018.0 1016.6 0.0
23/06:00am 13.9 9.1 2.5 46 5.1 ESE 17 24 9 13 1018.0 1016.6 0.0
23/05:30am 13.2 8.0 -0.1 40 5.6 SE 17 28 9 15 1017.5 1016.1 0.0
23/05:00am 13.3 7.9 -1.4 36 6.0 ESE 17 22 9 12 1017.0 1015.5 0.0
23/04:30am 13.9 7.9 -1.7 34 6.4 ESE 20 26 11 14 1016.7 1015.2 0.0
23/04:00am 14.1 8.6 -1.9 33 6.6 ESE 17 24 9 13 1016.3 1014.8 0.0
23/03:30am 14.3 9.6 -2.1 32 6.7 SE 13 17 7 9 1016.1 1014.6 0.0
23/03:00am 14.9 10.9 -2.1 31 7.0 SE 9 15 5 8 1016.2 1014.7 0.0
23/02:30am 15.5 11.1 -2.4 29 7.4 SE 11 15 6 8 1016.0 1014.5 0.0
23/02:00am 16.1 11.8 -1.9 29 7.5 SE 11 15 6 8 1016.1 1014.6 0.0
23/01:30am 14.0 10.3 -2.8 31 6.8 S 7 7 4 4 1016.1 1014.6 0.0
23/01:00am 16.4 12.0 -2.1 28 7.7 SSE 11 13 6 7 1016.2 1014.7 0.0
23/12:30am 15.0 10.9 -2.9 29 7.3 S 9 11 5 6 1016.4 1014.9 0.0
23/12:00am 15.4 11.2 -3.5 27 7.6 SSW 9 11 5 6 1016.8 1015.3 0.0
 
Date/Time
WST
Temp
°C
App
Temp
°C
Dew
Point
°C
Rel
Hum
%
Delta-T
°C
Wind Press
QNH
hPa
Press
MSL
hPa
Rain since
9am
mm
Dir  Spd
km/h
Gust
km/h
Spd
kts
Gust
kts
22/11:30pm 18.1 14.0 -3.3 23 8.9 SSE 9 11 5 6 1016.9 1015.4 0.0
22/11:00pm 19.1 14.2 -3.1 22 9.3 SSE 13 17 7 9 1017.1 1015.6 0.0
22/10:30pm 19.7 14.8 -3.2 21 9.7 SSE 13 19 7 10 1017.2 1015.7 0.0
22/10:00pm 19.9 15.4 -3.0 21 9.7 SSE 11 15 6 8 1017.0 1015.5 0.0
22/09:30pm 19.8 15.2 -3.8 20 9.8 SSE 11 15 6 8 1017.1 1015.6 0.0
22/09:00pm 21.7 16.4 -3.6 18 10.8 SSE 15 20 8 11 1017.0 1015.5 0.0
22/08:30pm 22.2 16.8 -4.8 16 11.3 SSE 15 19 8 10 1017.0 1015.5 0.0
22/08:00pm 20.7 16.7 -6.0 16 10.7 SSE 7 11 4 6 1016.7 1015.2 0.0
22/07:30pm 21.5 17.4 -7.1 14 11.4 S 7 9 4 5 1016.5 1015.0 0.0
22/07:00pm 22.8 18.2 -8.1 12 12.2 S 9 11 5 6 1016.3 1014.8 0.0
22/06:30pm 23.8 18.4 -8.4 11 12.8 S 13 19 7 10 1016.0 1014.5 0.0
22/06:00pm 25.2 19.4 -8.5 10 13.5 S 15 24 8 13 1015.7 1014.2 0.0
22/05:30pm 26.5 21.1 -8.9 9 14.3 SW 13 19 7 10 1015.2 1013.8 0.0
22/05:00pm 26.8 21.0 -8.7 9 14.4 SW 15 20 8 11 1015.0 1013.6 0.0
22/04:30pm 27.1 23.0 -7.1 10 14.3 S 7 15 4 8 1014.8 1013.3 0.0
22/04:00pm 27.8 22.6 -6.6 10 14.6 SW 13 19 7 10 1014.6 1013.1 0.0
22/03:30pm 27.1 21.5 -5.9 11 14.1 WNW 15 22 8 12 1014.6 1013.1 0.0
22/03:00pm 26.5 21.4 -5.2 12 13.7 S 13 20 7 11 1014.8 1013.3 0.0
22/02:30pm 26.5 20.9 -6.3 11 13.9 SSW 15 24 8 13 1015.0 1013.6 0.0
22/02:00pm 26.6 22.2 -2.1 15 13.1 W 11 20 6 11 1015.5 1014.0 0.0
22/01:30pm 25.2 20.4 -2.4 16 12.4 SW 13 24 7 13 1015.8 1014.3 0.0
22/01:00pm 25.0 21.0 0.5 20 11.6 WNW 11 24 6 13 1016.2 1014.7 0.0
22/12:30pm 24.9 21.3 3.0 24 10.8 SW 11 20 6 11 1016.4 1014.9 0.0
22/12:00pm 23.7 19.7 3.1 26 10.1 WSW 13 24 7 13 1016.8 1015.3 0.0
22/11:30am 23.4 19.2 3.9 28 9.7 W 15 26 8 14 1017.2 1015.7 0.0
22/11:00am 22.9 20.8 5.8 33 8.8 N 6 11 3 6 1017.7 1016.3 0.0
22/10:30am 21.5 18.4 5.4 35 8.1 WSW 11 19 6 10 1018.1 1016.7 0.0
22/10:00am 22.0 19.5 6.7 37 7.9 E 9 22 5 12 1018.5 1017.0 0.0
22/09:30am 20.8 18.3 6.7 40 7.3 S 9 17 5 9 1018.8 1017.3 0.0
22/09:00am 20.3 17.2 7.3 43 6.8 S 13 22 7 12 1018.9 1017.4 0.0
22/08:30am 19.2 15.2 6.7 44 6.4 S 17 28 9 15 1019.1 1017.6 0.0
22/08:00am 18.7 14.7 6.5 45 6.2 S 17 26 9 14 1018.9 1017.4 0.0
22/07:30am 17.8 13.8 6.7 48 5.6 S 17 22 9 12 1018.6 1017.1 0.0
22/07:00am 17.1 12.7 6.6 50 5.3 S 19 24 10 13 1018.6 1017.1 0.0
22/06:30am 16.5 12.6 7.2 54 4.7 S 17 26 9 14 1018.3 1016.8 0.0
22/06:00am 15.9 12.4 7.1 56 4.4 S 15 22 8 12 1017.9 1016.5 0.0
22/05:30am 15.2 12.8 7.0 58 4.1 SSW 9 11 5 6 1017.4 1016.0 0.0
22/05:00am 15.3 12.9 6.8 57 4.2 SSW 9 11 5 6 1016.8 1015.3 0.0
22/04:30am 15.7 13.2 6.7 55 4.5 SSW 9 13 5 7 1016.3 1014.8 0.0
22/04:00am 16.5 12.2 6.9 53 4.8 S 19 30 10 16 1015.8 1014.3 0.0
22/03:30am 16.6 13.0 6.7 52 5.0 SSW 15 22 8 12 1015.3 1013.9 0.0
22/03:00am 16.7 13.4 6.5 51 5.1 SSW 13 19 7 10 1015.1 1013.7 0.0
22/02:30am 16.8 13.9 6.3 50 5.2 S 11 15 6 8 1014.8 1013.3 0.0
22/02:00am 17.1 14.5 6.0 48 5.5 S 9 13 5 7 1014.7 1013.2 0.0
22/01:30am 17.7 14.7 5.9 46 5.9 SSW 11 15 6 8 1014.6 1013.1 0.0
22/01:00am 17.8 14.7 5.4 44 6.1 SSW 11 15 6 8 1014.7 1013.2 0.0
22/12:30am 17.4 14.1 2.6 37 6.9 SSW 9 13 5 7 1014.8 1013.3 0.0
22/12:00am 17.7 14.1 0.8 32 7.6 SSW 9 11 5 6 1014.9 1013.5 0.0
 
Date/Time
WST
Temp
°C
App
Temp
°C
Dew
Point
°C
Rel
Hum
%
Delta-T
°C
Wind Press
QNH
hPa
Press
MSL
hPa
Rain since
9am
mm
Dir  Spd
km/h
Gust
km/h
Spd
kts
Gust
kts
21/11:30pm 18.3 14.6 0.0 29 8.1 SSW 9 15 5 8 1015.0 1013.6 0.0
21/11:00pm 17.3 15.2 -0.9 29 7.9 CALM 0 7 0 4 1015.0 1013.6 0.0
21/10:30pm 17.5 15.3 -1.2 28 8.0 CALM 0 0 0 0 1015.0 1013.6 0.0
21/10:00pm 18.7 16.5 -1.7 25 8.8 CALM 0 0 0 0 1015.1 1013.7 0.0
21/09:30pm 19.4 16.4 -2.2 23 9.3 SW 4 6 2 3 1015.0 1013.6 0.0
21/09:00pm 20.9 17.2 -2.9 20 10.2 SW 7 9 4 5 1015.0 1013.6 0.0
21/08:30pm 22.2 18.1 -3.2 18 11.0 SW 9 11 5 6 1014.7 1013.2 0.0
21/08:00pm 23.5 18.6 -3.7 16 11.7 SW 13 17 7 9 1014.6 1013.1 0.0
21/07:30pm 24.0 19.4 -4.2 15 12.1 SW 11 15 6 8 1014.1 1012.6 0.0
21/07:00pm 25.3 20.4 -3.2 15 12.6 SW 13 17 7 9 1013.6 1012.1 0.0
21/06:30pm 26.3 21.6 -1.5 16 12.8 SW 13 20 7 11 1013.3 1011.8 0.0
21/06:00pm 27.5 21.8 0.3 17 13.1 WSW 20 30 11 16 1013.0 1011.5 0.0
21/05:30pm 28.6 22.9 0.3 16 13.7 SW 20 30 11 16 1012.8 1011.3 0.0
21/05:00pm 29.4 23.3 0.1 15 14.2 WSW 22 33 12 18 1012.3 1010.8 0.0
21/04:30pm 29.9 23.3 -0.5 14 14.6 WSW 24 43 13 23 1012.2 1010.7 0.0
21/04:00pm 30.2 23.9 -1.2 13 15.0 WSW 22 39 12 21 1012.2 1010.7 0.0
21/03:30pm 30.2 22.2 -2.3 12 15.2 W 30 48 16 26 1012.1 1010.6 0.0
21/03:28pm 30.2 22.6 -2.3 12 15.2 W 28 46 15 25 1012.1 1010.6 0.0
21/03:00pm 30.4 22.4 -2.2 12 15.3 W 30 44 16 24 1012.1 1010.6 0.0
21/02:51pm 31.0 23.1 -1.7 12 15.5 W 30 48 16 26 1012.1 1010.6 0.0
21/02:30pm 30.0 22.8 0.6 15 14.4 WNW 28 37 15 20 1012.2 1010.7 0.0
21/02:08pm 30.5 23.2 0.0 14 14.9 WNW 28 46 15 25 1012.3 1010.8 0.0
21/02:00pm 30.5 23.2 0.0 14 14.9 WNW 28 43 15 23 1012.4 1010.9 0.0
21/01:30pm 29.6 22.6 2.0 17 13.8 WNW 28 43 15 23 1013.0 1011.5 0.0
21/01:00pm 29.1 22.9 2.4 18 13.4 WNW 24 41 13 22 1013.7 1012.2 0.0
21/12:30pm 28.4 21.9 2.6 19 13.0 W 26 41 14 22 1014.0 1012.5 0.0
21/12:00pm 29.3 24.2 4.0 20 13.1 NW 20 30 11 16 1014.4 1012.9 0.0
21/11:30am 27.5 22.9 3.9 22 12.1 W 17 26 9 14 1015.0 1013.6 0.0
21/11:00am 26.1 23.1 6.2 28 10.5 WSW 11 20 6 11 1015.8 1014.3 0.0
21/10:30am 24.9 20.7 5.7 29 10.0 WSW 17 28 9 15 1016.3 1014.8 0.0
21/10:00am 24.1 21.2 6.4 32 9.3 SW 11 20 6 11 1016.7 1015.2 0.0
21/09:30am 23.0 19.6 5.9 33 8.8 SW 13 17 7 9 1017.1 1015.6 0.0
21/09:00am 22.0 19.0 5.8 35 8.3 SW 11 19 6 10 1017.2 1015.7 0.0
21/08:30am 20.9 17.2 6.1 38 7.6 SSW 15 19 8 10 1017.2 1015.7 0.0
21/08:00am 20.0 16.2 6.0 40 7.1 SSW 15 22 8 12 1017.2 1015.7 0.0
21/07:30am 19.5 15.7 5.9 41 6.9 SSW 15 26 8 14 1017.0 1015.5 0.0

Other Formats:

Comma delimited format used in spreadsheet applications
http://www.bom.gov.au/fwo/IDW60801/IDW60801.94450.axf

JavaScript Object Notation format (JSON) in row-major order
http://www.bom.gov.au/fwo/IDW60801/IDW60801.94450.json